Overview Statistics Trail Chart Weather Telemetry Raw packets
 

This is the latest recevied weather packets stored in our database for station/object KD7CIH. If no packets are shown the sender has not sent any weather packets the latest 10 day(s).

<< 91 92 93 94 95 96 97 >>
Time Temp. Humidity Pressure Rain* Wind** Luminosity Snow
1788025992 14.44° C 77% 1017.6 hPa 1.52 mm - - -
1788025567 14.44° C 77% 1017.6 hPa 1.78 mm - - -
1788025265 14.44° C 76% 1018.1 hPa 1.78 mm - - -
1788024965 14.44° C 78% 1018.2 hPa 1.78 mm - - -
1788024665 15° C 78% 1018.3 hPa 1.78 mm - - -
1788024367 14.44° C 79% 1018.6 hPa 1.78 mm - - -
1788024068 14.44° C 81% 1018.7 hPa 1.78 mm - - -
1788023766 14.44° C 81% 1018.6 hPa 1.78 mm - - -
1788023466 14.44° C 82% 1018.7 hPa 1.78 mm - - -
1788023166 14.44° C 81% 1018.8 hPa 1.52 mm - - -
1788022865 15° C 79% 1018.8 hPa 1.27 mm - - -
1788022693 15.56° C 75% 1018.9 hPa 1.02 mm - - -
1788022266 16.67° C 70% 1018.8 hPa 0.25 mm - - -
1788022093 17.78° C 62% 1018.1 hPa 0 mm - - -
1788021666 18.33° C 57% 1017.2 hPa 0 mm - - -
1788021365 18.33° C 55% 1017 hPa 0 mm - - -
1788021194 18.89° C 57% 1016.9 hPa 0 mm - - -
1788020893 18.89° C 56% 1016.8 hPa 0 mm - - -
1788020465 18.89° C 56% 1016.4 hPa 0 mm - - -
1788020292 18.89° C 56% 1016.4 hPa 0 mm - - -
1788019992 18.89° C 56% 1016.3 hPa 0 mm - - -
1788019567 19.44° C 56% 1016.3 hPa 0 mm - - -
1788019393 18.89° C 58% 1016.3 hPa 0 mm - - -
1788018965 18.89° C 61% 1016.5 hPa 0 mm - - -
1788018669 18.89° C 61% 1016.4 hPa 0 mm - - -

* Rain latest hour (hover to see other rain measurements)
** Current wind speed in m/s (hover to see current wind gust speed)